Terminal Aerodrome Forecast
Issued by NWS Tampa Bay Area, FL

Home | Current Version | Previous Version | Text Only | Print | Product List | Glossary On
Versions: 1 2 3 4 5 6 7 8 9 10 11 12 13 14 15 16 17 18 19 20 21 22 23 24 25 26
000
FTUS42 KTBW 221740
TAFTPA
TAF
KTPA 221740Z 2218/2318 15013G20KT P6SM VCSH SCT020 BKN110
      TEMPO 2218/2221 5SM SHRA BKN020 BKN100
     FM230000 34007KT P6SM BKN090
     FM230600 29004KT P6SM BKN030 BKN100
     FM231100 01004KT P6SM BKN110
     FM231600 01008KT P6SM SCT015 BKN045=

USA.gov is the U.S. government's official web portal to all federal, state and local government web resources and services.